createdAt,value
2022-12-12T00:03:45.333Z,-0.98
2022-12-12T00:08:51.391Z,-0.87
2022-12-12T00:13:56.083Z,-0.84
2022-12-12T00:19:01.832Z,-0.80
2022-12-12T00:24:06.817Z,-0.86
2022-12-12T00:29:12.778Z,-0.73
2022-12-12T00:34:18.603Z,-0.66
2022-12-12T00:39:25.095Z,-0.54
2022-12-12T00:44:29.726Z,-0.46
2022-12-12T00:49:35.566Z,-0.51
2022-12-12T00:54:40.143Z,-0.42
2022-12-12T00:59:44.777Z,-0.27
2022-12-12T01:04:49.494Z,-0.17
2022-12-12T01:09:55.102Z,-0.10
2022-12-12T01:14:59.976Z,-0.06
2022-12-12T01:20:05.375Z,-0.06
2022-12-12T01:25:11.968Z,0.03
2022-12-12T01:30:19.842Z,0.14
2022-12-12T01:35:25.861Z,0.18
2022-12-12T01:40:33.815Z,0.25
2022-12-12T01:46:09.748Z,0.27
2022-12-12T01:51:16.587Z,0.28
2022-12-12T01:56:22.972Z,0.31
2022-12-12T02:01:28.074Z,0.30
2022-12-12T02:06:33.173Z,0.46
2022-12-12T02:11:45.680Z,0.53
2022-12-12T02:16:56.814Z,0.53
2022-12-12T02:22:28.031Z,0.50
2022-12-12T02:27:32.493Z,0.64
2022-12-12T02:33:19.144Z,0.86
2022-12-12T02:38:45.910Z,0.99
2022-12-12T02:44:27.168Z,1.15
2022-12-12T02:49:37.761Z,1.22
2022-12-12T02:54:42.866Z,1.32
2022-12-12T03:00:19.684Z,1.36
2022-12-12T03:06:18.039Z,1.45
2022-12-12T03:11:39.616Z,1.49
2022-12-12T03:16:57.182Z,1.52
2022-12-12T03:22:20.357Z,1.54
2022-12-12T03:27:49.310Z,1.65
2022-12-12T03:33:27.305Z,1.67
2022-12-12T03:38:39.725Z,1.70
2022-12-12T03:43:57.630Z,1.79
2022-12-12T03:49:06.079Z,1.77
2022-12-12T03:54:26.079Z,1.91
2022-12-12T03:59:43.455Z,1.94
2022-12-12T04:05:07.737Z,2.02
2022-12-12T04:10:30.838Z,2.12
2022-12-12T04:15:35.818Z,2.07
2022-12-12T04:21:03.086Z,2.13
2022-12-12T04:26:31.917Z,2.17
2022-12-12T04:31:48.345Z,2.20
2022-12-12T04:36:52.856Z,2.25
2022-12-12T04:42:02.337Z,2.30
2022-12-12T04:47:09.616Z,2.24
2022-12-12T04:52:16.192Z,2.30
2022-12-12T04:57:29.715Z,2.33
2022-12-12T05:02:46.730Z,2.32
2022-12-12T05:08:11.174Z,2.24
2022-12-12T05:13:21.492Z,2.38
2022-12-12T05:18:27.689Z,2.42
2022-12-12T05:23:34.835Z,2.40
2022-12-12T05:28:40.282Z,2.41
2022-12-12T05:33:46.406Z,2.38
2022-12-12T05:38:51.962Z,2.47
2022-12-12T05:43:56.918Z,2.41
2022-12-12T05:49:01.758Z,2.47
2022-12-12T05:54:07.083Z,2.45
2022-12-12T05:59:12.407Z,2.47
2022-12-12T06:04:17.767Z,2.44
2022-12-12T06:09:23.305Z,2.39
2022-12-12T06:14:28.371Z,2.39
2022-12-12T06:19:33.542Z,2.29
2022-12-12T06:24:38.614Z,2.26
2022-12-12T06:29:43.802Z,2.18
2022-12-12T06:34:49.033Z,2.06
2022-12-12T06:39:54.345Z,1.97
2022-12-12T06:44:59.595Z,2.01
2022-12-12T06:50:04.632Z,2.00
2022-12-12T06:55:10.552Z,2.01
2022-12-12T07:00:16.482Z,1.98
2022-12-12T07:05:22.096Z,1.98
2022-12-12T07:10:27.330Z,1.92
2022-12-12T07:15:32.865Z,1.99
2022-12-12T07:20:41.894Z,2.08
2022-12-12T07:25:47.459Z,2.03
2022-12-12T07:30:52.910Z,2.00
2022-12-12T07:36:01.771Z,1.91
2022-12-12T07:41:13.066Z,1.77
2022-12-12T07:46:24.584Z,1.64
2022-12-12T07:51:31.277Z,1.55
2022-12-12T07:56:36.426Z,1.44
2022-12-12T08:01:41.866Z,1.43
2022-12-12T08:06:47.210Z,1.37
2022-12-12T08:11:52.790Z,1.24
2022-12-12T08:16:58.029Z,1.19
2022-12-12T08:22:03.153Z,1.21
2022-12-12T08:27:13.734Z,1.11
2022-12-12T08:32:20.801Z,1.07
2022-12-12T08:37:26.281Z,1.01
2022-12-12T08:42:30.989Z,0.94
2022-12-12T08:47:35.925Z,0.84
2022-12-12T08:52:40.893Z,0.86
2022-12-12T08:57:45.880Z,0.89
2022-12-12T09:02:50.910Z,0.86
2022-12-12T09:07:56.491Z,0.77
2022-12-12T09:13:02.444Z,0.73
2022-12-12T09:18:08.023Z,0.65
2022-12-12T09:23:12.915Z,0.71
2022-12-12T09:28:19.892Z,0.69
2022-12-12T09:33:24.854Z,0.70
2022-12-12T09:38:30.133Z,0.67
2022-12-12T09:44:09.686Z,0.60
2022-12-12T09:49:37.182Z,0.59
2022-12-12T09:54:47.338Z,0.49
2022-12-12T10:00:08.255Z,0.51
2022-12-12T10:05:32.307Z,0.48
2022-12-12T10:10:45.916Z,0.44
2022-12-12T10:16:01.304Z,0.34
2022-12-12T10:21:07.303Z,0.33
2022-12-12T10:26:25.908Z,0.27
2022-12-12T10:31:57.909Z,0.26
2022-12-12T10:37:24.206Z,0.24
2022-12-12T10:43:06.559Z,0.17
2022-12-12T10:48:11.598Z,0.21
2022-12-12T10:53:16.508Z,0.16
2022-12-12T10:58:27.166Z,0.15
2022-12-12T11:03:42.252Z,0.16
2022-12-12T11:09:02.412Z,0.12
2022-12-12T11:14:25.829Z,0.09
2022-12-12T11:19:41.712Z,0.06
2022-12-12T11:24:49.232Z,0.02
2022-12-12T11:29:57.757Z,-0.06
2022-12-12T11:35:06.660Z,-0.07
2022-12-12T11:40:28.590Z,-0.16
2022-12-12T11:45:33.476Z,-0.24
2022-12-12T11:50:47.844Z,-0.31
2022-12-12T11:55:58.923Z,-0.25
2022-12-12T12:01:14.497Z,-0.28
2022-12-12T12:06:54.137Z,-0.48
2022-12-12T12:12:13.995Z,-0.62
2022-12-12T12:17:32.633Z,-0.90
2022-12-12T12:23:02.791Z,-1.20
2022-12-12T12:28:13.736Z,-1.44
2022-12-12T12:33:26.993Z,-1.63
2022-12-12T12:38:51.891Z,-1.78
2022-12-12T12:44:23.591Z,-1.94
2022-12-12T12:49:35.702Z,-2.08
2022-12-12T12:54:48.615Z,-2.19
2022-12-12T13:00:01.470Z,-2.28
2022-12-12T13:05:22.613Z,-2.34
2022-12-12T13:10:33.398Z,-2.43
2022-12-12T13:16:09.617Z,-2.48
2022-12-12T13:21:24.666Z,-2.56
2022-12-12T13:26:28.748Z,-2.56
2022-12-12T13:31:32.962Z,-2.63
2022-12-12T13:36:42.685Z,-2.69
2022-12-12T13:42:12.346Z,-2.75
2022-12-12T13:47:27.236Z,-2.81
2022-12-12T13:52:44.901Z,-2.83
2022-12-12T13:58:03.658Z,-2.92
2022-12-12T14:03:14.447Z,-2.96
2022-12-12T14:08:19.675Z,-2.99
2022-12-12T14:13:24.527Z,-3.01
2022-12-12T14:18:32.380Z,-3.02
2022-12-12T14:23:51.052Z,-3.05
2022-12-12T14:29:18.001Z,-3.06
2022-12-12T14:34:51.012Z,-3.05
2022-12-12T14:40:11.440Z,-2.85
2022-12-12T14:45:51.011Z,-2.78
2022-12-12T14:51:27.529Z,-2.79
2022-12-12T14:56:53.623Z,-2.80
2022-12-12T15:02:20.433Z,-2.78
2022-12-12T15:07:30.084Z,-2.49
2022-12-12T15:12:37.146Z,-2.39
2022-12-12T15:17:51.937Z,-2.20
2022-12-12T15:23:02.861Z,-2.11
2022-12-12T15:28:08.032Z,-1.96
2022-12-12T15:33:27.283Z,-1.86
2022-12-12T15:38:32.559Z,-1.78
2022-12-12T15:43:38.597Z,-1.65
2022-12-12T15:48:53.818Z,-1.53
2022-12-12T15:53:58.910Z,-1.44
2022-12-12T15:59:06.608Z,-1.45
2022-12-12T16:04:11.382Z,-1.46
2022-12-12T16:09:27.893Z,-1.46
2022-12-12T16:14:42.542Z,-1.47
2022-12-12T16:19:58.812Z,-1.53
2022-12-12T16:25:38.464Z,-1.50
2022-12-12T16:30:45.337Z,-1.57
2022-12-12T16:35:50.258Z,-1.48
2022-12-12T16:40:58.249Z,-1.62
2022-12-12T16:46:03.198Z,-1.58
2022-12-12T16:51:10.591Z,-1.63
2022-12-12T16:56:15.342Z,-1.69
2022-12-12T17:01:22.682Z,-1.84
2022-12-12T17:06:27.286Z,-1.79
2022-12-12T17:11:31.967Z,-1.84
2022-12-12T17:16:36.565Z,-1.88
2022-12-12T17:21:41.253Z,-1.97
2022-12-12T17:26:45.957Z,-2.00
2022-12-12T17:31:51.685Z,-2.04
2022-12-12T17:36:55.747Z,-2.03
2022-12-12T17:42:00.467Z,-2.11
2022-12-12T17:47:04.533Z,-2.11
2022-12-12T17:52:09.147Z,-2.12
2022-12-12T17:57:14.684Z,-2.17
2022-12-12T18:02:19.316Z,-2.21
2022-12-12T18:07:23.973Z,-2.25
2022-12-12T18:12:29.655Z,-2.34
2022-12-12T18:17:34.136Z,-2.43
2022-12-12T18:22:38.679Z,-2.54
2022-12-12T18:27:43.280Z,-2.60
2022-12-12T18:32:47.846Z,-2.59
2022-12-12T18:37:52.404Z,-2.72
2022-12-12T18:42:57.344Z,-2.68
2022-12-12T18:48:01.884Z,-2.74
2022-12-12T18:53:06.527Z,-2.71
2022-12-12T18:58:12.262Z,-2.81
2022-12-12T19:03:16.860Z,-2.89
2022-12-12T19:08:21.463Z,-2.88
2022-12-12T19:13:27.209Z,-2.93
2022-12-12T19:18:31.767Z,-3.00
2022-12-12T19:23:37.596Z,-3.07
2022-12-12T19:28:42.422Z,-3.12
2022-12-12T19:33:49.085Z,-3.15
2022-12-12T19:38:55.687Z,-3.21
2022-12-12T19:44:06.032Z,-3.20
2022-12-12T19:49:13.400Z,-3.34
2022-12-12T19:54:22.047Z,-3.37
2022-12-12T19:59:26.581Z,-3.40
2022-12-12T20:04:31.366Z,-3.44
2022-12-12T20:09:37.411Z,-3.48
2022-12-12T20:14:42.124Z,-3.60
2022-12-12T20:19:49.928Z,-3.81
2022-12-12T20:24:54.564Z,-3.69
2022-12-12T20:29:58.666Z,-3.78
2022-12-12T20:35:02.704Z,-3.86
2022-12-12T20:40:07.094Z,-3.91
2022-12-12T20:45:12.341Z,-3.98
2022-12-12T20:50:17.851Z,-4.15
2022-12-12T20:55:22.419Z,-4.11
2022-12-12T21:00:27.743Z,-4.29
2022-12-12T21:05:32.441Z,-4.34
2022-12-12T21:10:37.039Z,-4.40
2022-12-12T21:15:41.704Z,-4.46
2022-12-12T21:20:46.898Z,-4.51
2022-12-12T21:25:51.459Z,-4.70
2022-12-12T21:30:56.026Z,-4.77
2022-12-12T21:36:09.467Z,-4.73
2022-12-12T21:41:17.141Z,-4.87
2022-12-12T21:46:25.115Z,-4.97
2022-12-12T21:51:29.679Z,-5.05
2022-12-12T21:56:34.817Z,-5.08
2022-12-12T22:01:40.237Z,-5.32
2022-12-12T22:06:48.597Z,-5.24
2022-12-12T22:12:03.030Z,-5.33
2022-12-12T22:17:08.849Z,-5.43
2022-12-12T22:22:14.498Z,-5.42
2022-12-12T22:27:19.101Z,-5.54
2022-12-12T22:32:23.763Z,-5.52
2022-12-12T22:37:28.354Z,-5.66
2022-12-12T22:42:32.948Z,-5.65
2022-12-12T22:47:38.585Z,-5.69
2022-12-12T22:52:43.124Z,-5.80
2022-12-12T22:57:49.536Z,-5.87
2022-12-12T23:02:54.096Z,-5.99
2022-12-12T23:07:58.871Z,-6.10
2022-12-12T23:13:03.433Z,-6.22
2022-12-12T23:18:07.969Z,-6.13
2022-12-12T23:23:13.671Z,-6.20
2022-12-12T23:28:17.674Z,-6.24
2022-12-12T23:33:22.260Z,-6.30
2022-12-12T23:38:26.922Z,-6.33
2022-12-12T23:43:31.580Z,-6.36
2022-12-12T23:48:36.700Z,-6.38
2022-12-12T23:53:41.262Z,-6.38
2022-12-12T23:58:46.015Z,-6.42
